Terminal Aerodrome Forecast
Issued by NWS

Home | Current Version | Previous Version | Text Only | Print | Product List | Glossary On
Versions: 1 2 3 4 5 6 7 8 9 10 11 12
000
FTUS45 KRIW 252300
TAFCPR
TAF
KCPR 252324Z 2600/2624 26016G26KT P6SM VCTS SCT110CB
     FM260130 31009KT P6SM VCSH SCT120
     FM260400 VRB06KT P6SM SKC
     FM262000 34010KT P6SM SKC=

USA.gov is the U.S. government's official web portal to all federal, state and local government web resources and services.